WetterOnline ( https://www.wetteronline.ch )

Wetter aktuell Harzgerode

Aktuelles Wetter: Harzgerode (405m)

6-stündlich | Neueste Meldungen
Ortszeit Temperatur Wetter
Mo, 16.12. 7:00 3.7° C bedeckt
Mo, 16.12. 1:00 3.0° C bedeckt
So, 15.12. 19:00 4.3° C bedeckt
So, 15.12. 13:00 6.2° C leicht bewölkt
So, 15.12. 7:00 4.0° C bedeckt
So, 15.12. 1:00 2.1° C bedeckt
Sa, 14.12. 19:00 2.2° C Regen
Sa, 14.12. 13:00 2.6° C bedeckt
Ortszeit Temperatur Wetter
Mo, 16.12. 9:00 4.8° C bedeckt
Mo, 16.12. 8:40 4.7° C Sprühregen
Mo, 16.12. 8:30 4.3° C Sprühregen
Mo, 16.12. 8:20 4.3° C Sprühregen
Mo, 16.12. 8:10 4.2° C bedeckt
Mo, 16.12. 8:00 4.0° C bedeckt
Mo, 16.12. 7:50 4.0° C bedeckt
Mo, 16.12. 7:30 3.9° C bedeckt
Mo, 16.12. 7:00 3.7° C bedeckt
Ortszeit Relative Feuchte Sichtweite
Mo, 16.12. 7:00 91% 40 km
Mo, 16.12. 1:00 81% 45 km
So, 15.12. 19:00 72% 45 km
So, 15.12. 13:00 77% >70 km
So, 15.12. 7:00 86% 40 km
So, 15.12. 1:00 81% 30 km
Sa, 14.12. 19:00 92% 7 km
Sa, 14.12. 13:00 86% 50 km
Ortszeit Relative Feuchte Sichtweite
Mo, 16.12. 9:00 95% 40 km
Mo, 16.12. 8:40 95% -
Mo, 16.12. 8:30 93% 30 km
Mo, 16.12. 8:20 93% -
Mo, 16.12. 8:10 93% -
Mo, 16.12. 8:00 92% 30 km
Mo, 16.12. 7:50 92% -
Mo, 16.12. 7:30 91% 30 km
Mo, 16.12. 7:00 91% 40 km
Ortszeit Niederschlagsmenge Niederschlagsart
Mo, 16.12. 7:00 0.0 l/m2 in 12 Std. -
Mo, 16.12. 1:00 0.0 l/m2 in 6 Std. -
So, 15.12. 19:00 0.3 l/m2 in 12 Std. -
So, 15.12. 13:00 0.3 l/m2 in 6 Std. Regen
So, 15.12. 7:00 0.8 l/m2 in 12 Std. Regen
So, 15.12. 1:00 0.8 l/m2 in 6 Std. Regen
Sa, 14.12. 19:00 1 l/m2 in 12 Std. Regen
Sa, 14.12. 13:00 1 l/m2 in 6 Std. Schnee, Regen
Ortszeit Niederschlagsmenge Niederschlagsart
Mo, 16.12. 9:00 0.1 l/m2 in 1 Std. Regen
Mo, 16.12. 8:40 keine Meldung -
Mo, 16.12. 8:30 0.1 l/m2 in 1 Std. -
Mo, 16.12. 8:20 keine Meldung -
Mo, 16.12. 8:10 keine Meldung -
Mo, 16.12. 8:00 0.1 l/m2 in 1 Std. Regen
Mo, 16.12. 7:50 keine Meldung -
Mo, 16.12. 7:30 0.0 l/m2 in 1 Std. -
Mo, 16.12. 7:00 0.0 l/m2 in 1 Std. -
Ortszeit Stärke Spitze Richtung
km/h Bft. km/h Grad Sektor
Mo, 16.12. 7:00 13 3 30 210° SW
Mo, 16.12. 1:00 19 3 37 210° SW
So, 15.12. 19:00 19 3 46 230° SW
So, 15.12. 13:00 22 4 65 240° SW
So, 15.12. 7:00 19 3 37 190° S
So, 15.12. 1:00 20 4 61 240° SW
Sa, 14.12. 19:00 18 3 58 210° SW
Sa, 14.12. 13:00 25 4 47 270° W
Ortszeit Stärke Spitze Richtung
km/h Bft. km/h Grad Sektor
Mo, 16.12. 9:00 11 2 18 180° S
Mo, 16.12. 8:40 11 2 - 180° S
Mo, 16.12. 8:30 11 2 18 190° S
Mo, 16.12. 8:20 11 2 - 190° S
Mo, 16.12. 8:10 9 2 - 200° S
Mo, 16.12. 8:00 11 2 18 200° S
Mo, 16.12. 7:50 11 2 - 200° S
Mo, 16.12. 7:30 13 3 19 200° S
Mo, 16.12. 7:00 13 3 20 210° SW
Ortszeit Untergrenze Bedeckung Gattung
total tief tief mittel hoch
Mo, 16.12. 7:00 2100 m 8/8 8/8 - - -
Mo, 16.12. 1:00 5700 m 8/8 8/8 - - -
So, 15.12. 19:00 5400 m 8/8 8/8 - - -
So, 15.12. 13:00 900 m 4/8 2/8 - - -
So, 15.12. 7:00 450 m 8/8 8/8 - - -
So, 15.12. 1:00 6000 m 8/8 8/8 - - -
Sa, 14.12. 19:00 480 m 7/8 7/8 - - -
Sa, 14.12. 13:00 480 m 8/8 8/8 - - -
Ortszeit Bedeckungsgrad in Achtel und Wolkenuntergrenze
Mo, 16.12. 9:00 2(390m) 6(1230m) 8(1470m)
Mo, 16.12. 8:40 2(1140m) 7(1380m)
Mo, 16.12. 8:30 1(1230m) 7(1800m) 8(2100m)
Mo, 16.12. 8:20 1(1230m) 7(1800m) 8(2100m)
Mo, 16.12. 8:10 1(1110m) 7(1500m) 8(2100m)
Mo, 16.12. 8:00 1(1110m) 8(1800m) 8(2100m)
Mo, 16.12. 7:50 1(1110m) 8(1800m)
Mo, 16.12. 7:30 8(2100m) 8(2700m) 8(5700m)
Mo, 16.12. 7:00 7(2100m) 8(2700m)
Ortszeit Luftdruck NN (hPa) Tendenz (hPa in 3 Std.)
Mo, 16.12. 7:00 1010 - 0,4
Mo, 16.12. 1:00 1010 + 1,5
So, 15.12. 19:00 1006 + 2,3
So, 15.12. 13:00 1000 + 3,4
So, 15.12. 7:00 997 - 2,4
So, 15.12. 1:00 1001 + 2,9
Sa, 14.12. 19:00 995 + 1,3
Sa, 14.12. 13:00 990 + 5,2
Ortszeit Luftdruck NN (hPa) Tendenz (hPa in 3 Std.)
Mo, 16.12. 9:00 1010 + 0,1
Mo, 16.12. 8:40 1010 keine Meldung
Mo, 16.12. 8:30 1010 0,0
Mo, 16.12. 8:20 1010 keine Meldung
Mo, 16.12. 8:10 1010 keine Meldung
Mo, 16.12. 8:00 1010 0,0
Mo, 16.12. 7:50 1010 keine Meldung
Mo, 16.12. 7:30 1010 - 0,5
Mo, 16.12. 7:00 1010 - 0,4
Ortszeit Schneehöhe (cm)
Mo, 16.12. 7:00 0
Mo, 16.12. 1:00 0
So, 15.12. 19:00 0
So, 15.12. 13:00 0
So, 15.12. 7:00 0
So, 15.12. 1:00 0
Sa, 14.12. 19:00 0
Sa, 14.12. 13:00 0
Ortszeit Schneehöhe (cm)
Mo, 16.12. 9:00 0
Mo, 16.12. 8:40 0
Mo, 16.12. 8:30 0
Mo, 16.12. 8:20 0
Mo, 16.12. 8:10 0
Mo, 16.12. 8:00 0
Mo, 16.12. 7:50 0
Mo, 16.12. 7:30 0
Mo, 16.12. 7:00 0
Link zu dieser Seite / Seite empfehlen

Das Wetter in ...